sensor_id;sensor_type;location;lat;lon;timestamp;P1;durP1;ratioP1;P2;durP2;ratioP2
75548;SDS011;64133;56.002;37.208;2023-07-02T00:01:59;7.17;;;4.25;;
75548;SDS011;64133;56.002;37.208;2023-07-02T00:07:16;7.70;;;4.37;;
75548;SDS011;64133;56.002;37.208;2023-07-02T00:12:21;4.75;;;3.27;;
75548;SDS011;64133;56.002;37.208;2023-07-02T00:17:26;6.22;;;3.85;;
75548;SDS011;64133;56.002;37.208;2023-07-02T00:22:30;7.37;;;4.28;;
75548;SDS011;64133;56.002;37.208;2023-07-02T00:27:35;7.42;;;3.47;;
75548;SDS011;64133;56.002;37.208;2023-07-02T00:32:40;6.03;;;3.60;;
75548;SDS011;64133;56.002;37.208;2023-07-02T00:37:45;5.20;;;3.47;;
75548;SDS011;64133;56.002;37.208;2023-07-02T00:42:50;7.80;;;4.12;;
75548;SDS011;64133;56.002;37.208;2023-07-02T00:47:54;6.78;;;4.22;;
75548;SDS011;64133;56.002;37.208;2023-07-02T00:52:59;5.78;;;3.77;;
75548;SDS011;64133;56.002;37.208;2023-07-02T00:58:04;6.28;;;3.35;;
75548;SDS011;64133;56.002;37.208;2023-07-02T01:03:08;7.22;;;3.75;;
75548;SDS011;64133;56.002;37.208;2023-07-02T01:08:13;6.45;;;3.47;;
75548;SDS011;64133;56.002;37.208;2023-07-02T01:13:21;8.98;;;4.45;;
75548;SDS011;64133;56.002;37.208;2023-07-02T01:18:25;6.15;;;3.80;;
75548;SDS011;64133;56.002;37.208;2023-07-02T01:23:30;8.73;;;3.85;;
75548;SDS011;64133;56.002;37.208;2023-07-02T01:28:35;7.78;;;4.58;;
75548;SDS011;64133;56.002;37.208;2023-07-02T01:33:40;6.05;;;4.72;;
75548;SDS011;64133;56.002;37.208;2023-07-02T01:38:45;6.00;;;4.15;;
75548;SDS011;64133;56.002;37.208;2023-07-02T01:43:49;7.05;;;4.20;;
75548;SDS011;64133;56.002;37.208;2023-07-02T01:48:54;8.78;;;3.60;;
75548;SDS011;64133;56.002;37.208;2023-07-02T01:53:59;6.58;;;3.40;;
75548;SDS011;64133;56.002;37.208;2023-07-02T01:59:04;7.08;;;4.12;;
75548;SDS011;64133;56.002;37.208;2023-07-02T02:04:09;5.60;;;3.83;;
75548;SDS011;64133;56.002;37.208;2023-07-02T02:09:13;11.65;;;3.50;;
75548;SDS011;64133;56.002;37.208;2023-07-02T02:14:18;7.28;;;4.05;;
75548;SDS011;64133;56.002;37.208;2023-07-02T02:19:22;6.55;;;3.85;;
75548;SDS011;64133;56.002;37.208;2023-07-02T02:24:27;6.78;;;3.40;;
75548;SDS011;64133;56.002;37.208;2023-07-02T02:29:32;5.55;;;3.95;;
75548;SDS011;64133;56.002;37.208;2023-07-02T02:34:36;7.20;;;3.87;;
75548;SDS011;64133;56.002;37.208;2023-07-02T02:39:41;7.53;;;3.52;;
75548;SDS011;64133;56.002;37.208;2023-07-02T02:44:46;8.65;;;3.22;;
75548;SDS011;64133;56.002;37.208;2023-07-02T02:49:50;4.65;;;3.35;;
75548;SDS011;64133;56.002;37.208;2023-07-02T02:54:55;5.45;;;3.25;;
75548;SDS011;64133;56.002;37.208;2023-07-02T03:00:00;6.75;;;3.52;;
75548;SDS011;64133;56.002;37.208;2023-07-02T03:05:05;5.35;;;3.25;;
75548;SDS011;64133;56.002;37.208;2023-07-02T03:10:10;5.33;;;3.67;;
75548;SDS011;64133;56.002;37.208;2023-07-02T03:15:15;5.00;;;3.00;;
75548;SDS011;64133;56.002;37.208;2023-07-02T03:20:20;6.15;;;3.62;;
75548;SDS011;64133;56.002;37.208;2023-07-02T03:25:25;7.95;;;3.08;;
75548;SDS011;64133;56.002;37.208;2023-07-02T03:30:30;4.95;;;2.65;;
75548;SDS011;64133;56.002;37.208;2023-07-02T03:35:34;5.22;;;2.98;;
75548;SDS011;64133;56.002;37.208;2023-07-02T03:40:39;5.30;;;2.83;;
75548;SDS011;64133;56.002;37.208;2023-07-02T03:45:44;6.17;;;3.22;;
75548;SDS011;64133;56.002;37.208;2023-07-02T03:50:49;4.62;;;3.00;;
75548;SDS011;64133;56.002;37.208;2023-07-02T03:55:53;5.92;;;3.10;;
75548;SDS011;64133;56.002;37.208;2023-07-02T04:00:58;4.55;;;2.67;;
75548;SDS011;64133;56.002;37.208;2023-07-02T04:06:03;5.75;;;3.12;;
75548;SDS011;64133;56.002;37.208;2023-07-02T04:11:08;5.03;;;2.40;;
75548;SDS011;64133;56.002;37.208;2023-07-02T04:16:13;5.70;;;2.75;;
75548;SDS011;64133;56.002;37.208;2023-07-02T04:21:17;3.85;;;2.30;;
75548;SDS011;64133;56.002;37.208;2023-07-02T04:26:22;4.10;;;2.62;;
75548;SDS011;64133;56.002;37.208;2023-07-02T04:31:27;4.30;;;2.20;;
75548;SDS011;64133;56.002;37.208;2023-07-02T04:36:32;4.45;;;2.15;;
75548;SDS011;64133;56.002;37.208;2023-07-02T04:41:37;5.50;;;2.40;;
75548;SDS011;64133;56.002;37.208;2023-07-02T04:46:41;3.77;;;2.20;;
75548;SDS011;64133;56.002;37.208;2023-07-02T04:51:46;5.08;;;2.25;;
75548;SDS011;64133;56.002;37.208;2023-07-02T04:56:51;4.35;;;2.15;;
75548;SDS011;64133;56.002;37.208;2023-07-02T05:01:55;4.65;;;2.27;;
75548;SDS011;64133;56.002;37.208;2023-07-02T05:07:00;4.92;;;2.12;;
75548;SDS011;64133;56.002;37.208;2023-07-02T05:12:05;4.30;;;2.00;;
75548;SDS011;64133;56.002;37.208;2023-07-02T05:17:10;8.53;;;2.15;;
75548;SDS011;64133;56.002;37.208;2023-07-02T05:22:15;4.17;;;2.02;;
75548;SDS011;64133;56.002;37.208;2023-07-02T05:27:20;3.70;;;2.20;;
75548;SDS011;64133;56.002;37.208;2023-07-02T05:32:25;3.52;;;2.00;;
75548;SDS011;64133;56.002;37.208;2023-07-02T05:37:29;3.85;;;2.15;;
75548;SDS011;64133;56.002;37.208;2023-07-02T05:42:34;3.33;;;2.35;;
75548;SDS011;64133;56.002;37.208;2023-07-02T05:47:39;4.97;;;2.00;;
75548;SDS011;64133;56.002;37.208;2023-07-02T05:52:43;4.60;;;1.98;;
75548;SDS011;64133;56.002;37.208;2023-07-02T05:57:48;5.67;;;2.17;;
75548;SDS011;64133;56.002;37.208;2023-07-02T06:02:53;5.17;;;2.12;;
75548;SDS011;64133;56.002;37.208;2023-07-02T06:07:58;6.08;;;1.95;;
75548;SDS011;64133;56.002;37.208;2023-07-02T06:13:02;5.08;;;2.30;;
75548;SDS011;64133;56.002;37.208;2023-07-02T06:18:07;2.58;;;1.87;;
75548;SDS011;64133;56.002;37.208;2023-07-02T06:23:12;3.70;;;1.90;;
75548;SDS011;64133;56.002;37.208;2023-07-02T06:33:30;3.95;;;2.20;;
75548;SDS011;64133;56.002;37.208;2023-07-02T06:38:35;2.75;;;1.65;;
75548;SDS011;64133;56.002;37.208;2023-07-02T06:43:41;4.15;;;2.02;;
75548;SDS011;64133;56.002;37.208;2023-07-02T06:48:46;5.30;;;1.98;;
75548;SDS011;64133;56.002;37.208;2023-07-02T06:53:50;3.75;;;1.62;;
75548;SDS011;64133;56.002;37.208;2023-07-02T06:58:55;3.85;;;1.60;;
75548;SDS011;64133;56.002;37.208;2023-07-02T07:04:00;4.10;;;1.35;;
75548;SDS011;64133;56.002;37.208;2023-07-02T07:09:04;4.58;;;2.02;;
75548;SDS011;64133;56.002;37.208;2023-07-02T07:14:09;2.62;;;1.80;;
75548;SDS011;64133;56.002;37.208;2023-07-02T07:19:14;4.37;;;2.30;;
75548;SDS011;64133;56.002;37.208;2023-07-02T07:24:19;3.65;;;1.90;;
75548;SDS011;64133;56.002;37.208;2023-07-02T07:29:23;7.10;;;2.47;;
75548;SDS011;64133;56.002;37.208;2023-07-02T07:34:28;2.67;;;1.92;;
75548;SDS011;64133;56.002;37.208;2023-07-02T07:39:33;6.70;;;2.55;;
75548;SDS011;64133;56.002;37.208;2023-07-02T07:44:37;4.05;;;1.72;;
75548;SDS011;64133;56.002;37.208;2023-07-02T07:49:42;4.65;;;2.02;;
75548;SDS011;64133;56.002;37.208;2023-07-02T07:54:47;3.20;;;1.95;;
75548;SDS011;64133;56.002;37.208;2023-07-02T07:59:52;9.63;;;2.22;;
75548;SDS011;64133;56.002;37.208;2023-07-02T08:04:57;6.12;;;2.58;;
75548;SDS011;64133;56.002;37.208;2023-07-02T08:10:01;4.85;;;1.98;;
75548;SDS011;64133;56.002;37.208;2023-07-02T08:15:07;8.85;;;1.90;;
75548;SDS011;64133;56.002;37.208;2023-07-02T08:20:18;5.05;;;1.77;;
75548;SDS011;64133;56.002;37.208;2023-07-02T08:25:23;3.52;;;1.72;;
75548;SDS011;64133;56.002;37.208;2023-07-02T08:30:28;2.92;;;1.50;;
75548;SDS011;64133;56.002;37.208;2023-07-02T08:35:36;11.33;;;1.70;;
75548;SDS011;64133;56.002;37.208;2023-07-02T08:40:41;3.22;;;1.50;;
75548;SDS011;64133;56.002;37.208;2023-07-02T08:45:46;4.12;;;1.45;;
75548;SDS011;64133;56.002;37.208;2023-07-02T08:50:51;4.65;;;1.50;;
75548;SDS011;64133;56.002;37.208;2023-07-02T08:55:56;2.90;;;1.60;;
75548;SDS011;64133;56.002;37.208;2023-07-02T09:01:07;4.28;;;1.57;;
75548;SDS011;64133;56.002;37.208;2023-07-02T09:06:12;7.15;;;1.75;;
75548;SDS011;64133;56.002;37.208;2023-07-02T09:11:17;5.58;;;1.75;;
75548;SDS011;64133;56.002;37.208;2023-07-02T09:16:23;2.25;;;1.30;;
75548;SDS011;64133;56.002;37.208;2023-07-02T09:21:28;5.33;;;1.80;;
75548;SDS011;64133;56.002;37.208;2023-07-02T09:26:32;4.17;;;1.70;;
75548;SDS011;64133;56.002;37.208;2023-07-02T09:31:44;4.08;;;1.92;;
75548;SDS011;64133;56.002;37.208;2023-07-02T09:36:49;2.95;;;1.82;;
75548;SDS011;64133;56.002;37.208;2023-07-02T09:41:54;4.92;;;1.30;;
75548;SDS011;64133;56.002;37.208;2023-07-02T09:47:00;4.83;;;1.55;;
75548;SDS011;64133;56.002;37.208;2023-07-02T09:52:11;3.02;;;1.57;;
75548;SDS011;64133;56.002;37.208;2023-07-02T09:57:16;3.98;;;1.82;;
75548;SDS011;64133;56.002;37.208;2023-07-02T10:02:21;4.22;;;1.92;;
75548;SDS011;64133;56.002;37.208;2023-07-02T10:07:29;2.62;;;1.47;;
75548;SDS011;64133;56.002;37.208;2023-07-02T10:12:33;3.50;;;1.80;;
75548;SDS011;64133;56.002;37.208;2023-07-02T10:17:38;2.95;;;1.40;;
75548;SDS011;64133;56.002;37.208;2023-07-02T10:22:43;5.42;;;1.50;;
75548;SDS011;64133;56.002;37.208;2023-07-02T10:27:48;2.70;;;1.22;;
75548;SDS011;64133;56.002;37.208;2023-07-02T10:32:52;3.22;;;1.72;;
75548;SDS011;64133;56.002;37.208;2023-07-02T10:37:57;5.10;;;1.75;;
75548;SDS011;64133;56.002;37.208;2023-07-02T10:43:02;3.27;;;1.50;;
75548;SDS011;64133;56.002;37.208;2023-07-02T10:48:09;4.05;;;1.57;;
75548;SDS011;64133;56.002;37.208;2023-07-02T10:53:15;5.10;;;2.10;;
75548;SDS011;64133;56.002;37.208;2023-07-02T10:58:20;3.58;;;1.42;;
75548;SDS011;64133;56.002;37.208;2023-07-02T11:03:25;5.62;;;1.72;;
75548;SDS011;64133;56.002;37.208;2023-07-02T11:08:35;3.42;;;1.57;;
75548;SDS011;64133;56.002;37.208;2023-07-02T11:13:44;7.20;;;2.00;;
75548;SDS011;64133;56.002;37.208;2023-07-02T11:18:49;5.08;;;2.22;;
75548;SDS011;64133;56.002;37.208;2023-07-02T11:24:01;3.00;;;1.70;;
75548;SDS011;64133;56.002;37.208;2023-07-02T11:29:10;4.17;;;1.80;;
75548;SDS011;64133;56.002;37.208;2023-07-02T11:34:15;3.95;;;1.57;;
75548;SDS011;64133;56.002;37.208;2023-07-02T11:39:19;4.35;;;2.17;;
75548;SDS011;64133;56.002;37.208;2023-07-02T11:44:24;3.92;;;1.90;;
75548;SDS011;64133;56.002;37.208;2023-07-02T11:49:29;3.85;;;1.70;;
75548;SDS011;64133;56.002;37.208;2023-07-02T11:54:34;8.85;;;1.55;;
75548;SDS011;64133;56.002;37.208;2023-07-02T11:59:39;5.65;;;2.12;;
75548;SDS011;64133;56.002;37.208;2023-07-02T12:04:45;4.30;;;1.75;;
75548;SDS011;64133;56.002;37.208;2023-07-02T12:09:50;3.90;;;1.90;;
75548;SDS011;64133;56.002;37.208;2023-07-02T12:14:54;5.30;;;2.25;;
75548;SDS011;64133;56.002;37.208;2023-07-02T12:19:59;4.67;;;1.90;;
75548;SDS011;64133;56.002;37.208;2023-07-02T12:25:04;5.47;;;2.08;;
75548;SDS011;64133;56.002;37.208;2023-07-02T12:30:10;5.53;;;2.08;;
75548;SDS011;64133;56.002;37.208;2023-07-02T12:35:15;3.58;;;2.10;;
75548;SDS011;64133;56.002;37.208;2023-07-02T12:40:20;4.78;;;2.33;;
75548;SDS011;64133;56.002;37.208;2023-07-02T12:45:25;5.30;;;2.20;;
75548;SDS011;64133;56.002;37.208;2023-07-02T12:50:29;4.67;;;2.10;;
75548;SDS011;64133;56.002;37.208;2023-07-02T12:55:35;5.40;;;2.08;;
75548;SDS011;64133;56.002;37.208;2023-07-02T13:00:40;4.42;;;2.10;;
75548;SDS011;64133;56.002;37.208;2023-07-02T13:05:45;4.83;;;2.22;;
75548;SDS011;64133;56.002;37.208;2023-07-02T13:10:53;4.25;;;2.08;;
75548;SDS011;64133;56.002;37.208;2023-07-02T13:15:58;5.65;;;2.50;;
75548;SDS011;64133;56.002;37.208;2023-07-02T13:21:02;3.55;;;1.90;;
75548;SDS011;64133;56.002;37.208;2023-07-02T13:26:07;3.98;;;1.70;;
75548;SDS011;64133;56.002;37.208;2023-07-02T13:31:12;6.33;;;2.08;;
75548;SDS011;64133;56.002;37.208;2023-07-02T13:36:17;5.65;;;2.62;;
75548;SDS011;64133;56.002;37.208;2023-07-02T13:41:21;3.52;;;2.02;;
75548;SDS011;64133;56.002;37.208;2023-07-02T13:46:26;5.28;;;2.42;;
75548;SDS011;64133;56.002;37.208;2023-07-02T13:51:31;3.67;;;2.10;;
75548;SDS011;64133;56.002;37.208;2023-07-02T13:56:36;4.35;;;2.08;;
75548;SDS011;64133;56.002;37.208;2023-07-02T14:01:41;4.53;;;2.20;;
75548;SDS011;64133;56.002;37.208;2023-07-02T14:06:46;3.47;;;2.00;;
75548;SDS011;64133;56.002;37.208;2023-07-02T14:11:50;5.45;;;2.30;;
75548;SDS011;64133;56.002;37.208;2023-07-02T14:16:55;4.87;;;2.30;;
75548;SDS011;64133;56.002;37.208;2023-07-02T14:22:00;3.77;;;2.02;;
75548;SDS011;64133;56.002;37.208;2023-07-02T14:27:05;4.17;;;2.02;;
75548;SDS011;64133;56.002;37.208;2023-07-02T14:32:10;6.33;;;2.05;;
75548;SDS011;64133;56.002;37.208;2023-07-02T14:37:15;5.85;;;2.80;;
75548;SDS011;64133;56.002;37.208;2023-07-02T14:42:20;4.87;;;2.90;;
75548;SDS011;64133;56.002;37.208;2023-07-02T14:47:24;4.40;;;2.10;;
75548;SDS011;64133;56.002;37.208;2023-07-02T14:52:29;4.45;;;2.20;;
75548;SDS011;64133;56.002;37.208;2023-07-02T14:57:34;7.00;;;3.08;;
75548;SDS011;64133;56.002;37.208;2023-07-02T15:02:39;6.78;;;2.75;;
75548;SDS011;64133;56.002;37.208;2023-07-02T15:07:44;6.62;;;3.30;;
75548;SDS011;64133;56.002;37.208;2023-07-02T15:12:48;7.15;;;2.50;;
75548;SDS011;64133;56.002;37.208;2023-07-02T15:17:53;4.50;;;2.00;;
75548;SDS011;64133;56.002;37.208;2023-07-02T15:22:58;4.83;;;2.58;;
75548;SDS011;64133;56.002;37.208;2023-07-02T15:28:03;4.53;;;2.27;;
75548;SDS011;64133;56.002;37.208;2023-07-02T15:33:07;4.45;;;2.27;;
75548;SDS011;64133;56.002;37.208;2023-07-02T15:38:12;3.80;;;2.10;;
75548;SDS011;64133;56.002;37.208;2023-07-02T15:43:17;5.37;;;2.37;;
75548;SDS011;64133;56.002;37.208;2023-07-02T15:48:22;5.08;;;2.20;;
75548;SDS011;64133;56.002;37.208;2023-07-02T15:53:27;5.42;;;2.30;;
75548;SDS011;64133;56.002;37.208;2023-07-02T15:58:33;5.87;;;2.60;;
75548;SDS011;64133;56.002;37.208;2023-07-02T16:09:23;5.95;;;2.55;;
75548;SDS011;64133;56.002;37.208;2023-07-02T16:20:30;6.87;;;2.90;;
75548;SDS011;64133;56.002;37.208;2023-07-02T16:25:35;7.17;;;3.10;;
75548;SDS011;64133;56.002;37.208;2023-07-02T16:30:40;5.22;;;2.70;;
75548;SDS011;64133;56.002;37.208;2023-07-02T16:35:45;5.55;;;2.90;;
75548;SDS011;64133;56.002;37.208;2023-07-02T16:40:49;5.60;;;3.45;;
75548;SDS011;64133;56.002;37.208;2023-07-02T16:45:54;5.25;;;3.00;;
75548;SDS011;64133;56.002;37.208;2023-07-02T16:51:00;6.08;;;3.22;;
75548;SDS011;64133;56.002;37.208;2023-07-02T16:56:05;4.97;;;2.72;;
75548;SDS011;64133;56.002;37.208;2023-07-02T17:01:10;7.92;;;3.05;;
75548;SDS011;64133;56.002;37.208;2023-07-02T17:06:14;4.92;;;2.62;;
75548;SDS011;64133;56.002;37.208;2023-07-02T17:11:19;6.10;;;3.77;;
75548;SDS011;64133;56.002;37.208;2023-07-02T17:22:17;8.80;;;3.52;;
75548;SDS011;64133;56.002;37.208;2023-07-02T17:27:22;7.00;;;3.30;;
75548;SDS011;64133;56.002;37.208;2023-07-02T17:32:26;6.87;;;3.22;;
75548;SDS011;64133;56.002;37.208;2023-07-02T17:37:31;7.12;;;3.45;;
75548;SDS011;64133;56.002;37.208;2023-07-02T17:42:36;6.92;;;3.05;;
75548;SDS011;64133;56.002;37.208;2023-07-02T17:47:40;9.80;;;3.25;;
75548;SDS011;64133;56.002;37.208;2023-07-02T17:52:45;8.53;;;3.50;;
75548;SDS011;64133;56.002;37.208;2023-07-02T17:57:50;6.92;;;3.45;;
75548;SDS011;64133;56.002;37.208;2023-07-02T18:02:54;7.58;;;3.87;;
75548;SDS011;64133;56.002;37.208;2023-07-02T18:07:59;9.55;;;4.70;;
75548;SDS011;64133;56.002;37.208;2023-07-02T18:13:04;6.78;;;3.87;;
75548;SDS011;64133;56.002;37.208;2023-07-02T18:18:09;8.48;;;3.95;;
75548;SDS011;64133;56.002;37.208;2023-07-02T18:23:13;8.08;;;4.08;;
75548;SDS011;64133;56.002;37.208;2023-07-02T18:28:18;7.72;;;4.40;;
75548;SDS011;64133;56.002;37.208;2023-07-02T18:33:23;10.25;;;3.95;;
75548;SDS011;64133;56.002;37.208;2023-07-02T18:38:27;11.38;;;4.70;;
75548;SDS011;64133;56.002;37.208;2023-07-02T18:43:32;13.25;;;6.78;;
75548;SDS011;64133;56.002;37.208;2023-07-02T18:48:37;8.60;;;4.83;;
75548;SDS011;64133;56.002;37.208;2023-07-02T18:53:42;8.40;;;4.30;;
75548;SDS011;64133;56.002;37.208;2023-07-02T18:58:46;7.83;;;4.47;;
75548;SDS011;64133;56.002;37.208;2023-07-02T19:03:51;10.05;;;4.28;;
75548;SDS011;64133;56.002;37.208;2023-07-02T19:08:59;16.95;;;9.00;;
75548;SDS011;64133;56.002;37.208;2023-07-02T19:14:03;18.37;;;9.88;;
75548;SDS011;64133;56.002;37.208;2023-07-02T19:19:08;14.25;;;7.58;;
75548;SDS011;64133;56.002;37.208;2023-07-02T19:24:13;11.90;;;6.65;;
75548;SDS011;64133;56.002;37.208;2023-07-02T19:29:18;9.60;;;5.58;;
75548;SDS011;64133;56.002;37.208;2023-07-02T19:34:22;8.85;;;5.03;;
75548;SDS011;64133;56.002;37.208;2023-07-02T19:39:27;10.65;;;4.45;;
75548;SDS011;64133;56.002;37.208;2023-07-02T19:44:32;10.10;;;5.62;;
75548;SDS011;64133;56.002;37.208;2023-07-02T19:49:37;12.73;;;6.05;;
75548;SDS011;64133;56.002;37.208;2023-07-02T19:54:42;12.10;;;5.17;;
75548;SDS011;64133;56.002;37.208;2023-07-02T19:59:48;10.98;;;4.95;;
75548;SDS011;64133;56.002;37.208;2023-07-02T20:04:55;15.55;;;7.85;;
75548;SDS011;64133;56.002;37.208;2023-07-02T20:10:00;15.88;;;7.78;;
75548;SDS011;64133;56.002;37.208;2023-07-02T20:15:06;13.95;;;6.67;;
75548;SDS011;64133;56.002;37.208;2023-07-02T20:20:12;10.00;;;5.20;;
75548;SDS011;64133;56.002;37.208;2023-07-02T20:25:18;10.20;;;5.35;;
75548;SDS011;64133;56.002;37.208;2023-07-02T20:30:23;10.75;;;5.20;;
75548;SDS011;64133;56.002;37.208;2023-07-02T20:35:28;12.93;;;5.97;;
75548;SDS011;64133;56.002;37.208;2023-07-02T20:40:32;9.10;;;4.75;;
75548;SDS011;64133;56.002;37.208;2023-07-02T20:45:38;9.83;;;5.37;;
75548;SDS011;64133;56.002;37.208;2023-07-02T20:50:43;12.37;;;5.67;;
75548;SDS011;64133;56.002;37.208;2023-07-02T20:55:53;9.38;;;4.53;;
75548;SDS011;64133;56.002;37.208;2023-07-02T21:01:01;9.80;;;5.08;;
75548;SDS011;64133;56.002;37.208;2023-07-02T21:06:06;10.68;;;4.53;;
75548;SDS011;64133;56.002;37.208;2023-07-02T21:11:11;10.35;;;5.70;;
75548;SDS011;64133;56.002;37.208;2023-07-02T21:16:16;15.83;;;4.85;;
75548;SDS011;64133;56.002;37.208;2023-07-02T21:21:21;9.45;;;4.60;;
75548;SDS011;64133;56.002;37.208;2023-07-02T21:26:26;10.80;;;5.33;;
75548;SDS011;64133;56.002;37.208;2023-07-02T21:31:30;9.15;;;5.15;;
75548;SDS011;64133;56.002;37.208;2023-07-02T21:36:35;11.57;;;5.00;;
75548;SDS011;64133;56.002;37.208;2023-07-02T21:41:40;8.90;;;4.58;;
75548;SDS011;64133;56.002;37.208;2023-07-02T21:46:45;9.13;;;4.58;;
75548;SDS011;64133;56.002;37.208;2023-07-02T21:51:49;12.40;;;5.35;;
75548;SDS011;64133;56.002;37.208;2023-07-02T21:56:54;9.00;;;4.65;;
75548;SDS011;64133;56.002;37.208;2023-07-02T22:01:59;10.20;;;4.90;;
75548;SDS011;64133;56.002;37.208;2023-07-02T22:07:04;7.87;;;4.03;;
75548;SDS011;64133;56.002;37.208;2023-07-02T22:12:09;9.13;;;4.65;;
75548;SDS011;64133;56.002;37.208;2023-07-02T22:17:14;10.80;;;5.12;;
75548;SDS011;64133;56.002;37.208;2023-07-02T22:22:19;9.88;;;4.80;;
75548;SDS011;64133;56.002;37.208;2023-07-02T22:27:24;11.97;;;4.85;;
75548;SDS011;64133;56.002;37.208;2023-07-02T22:32:28;10.00;;;4.67;;
75548;SDS011;64133;56.002;37.208;2023-07-02T22:37:33;11.80;;;4.40;;
75548;SDS011;64133;56.002;37.208;2023-07-02T22:42:38;8.73;;;4.35;;
75548;SDS011;64133;56.002;37.208;2023-07-02T22:47:43;9.95;;;4.17;;
75548;SDS011;64133;56.002;37.208;2023-07-02T22:52:48;10.75;;;4.40;;
75548;SDS011;64133;56.002;37.208;2023-07-02T22:57:53;11.10;;;5.15;;
75548;SDS011;64133;56.002;37.208;2023-07-02T23:02:58;10.60;;;4.50;;
75548;SDS011;64133;56.002;37.208;2023-07-02T23:08:05;9.13;;;4.40;;
75548;SDS011;64133;56.002;37.208;2023-07-02T23:13:10;7.25;;;4.35;;
75548;SDS011;64133;56.002;37.208;2023-07-02T23:18:15;7.35;;;4.55;;
75548;SDS011;64133;56.002;37.208;2023-07-02T23:23:19;10.82;;;4.28;;
75548;SDS011;64133;56.002;37.208;2023-07-02T23:28:24;8.65;;;4.28;;
75548;SDS011;64133;56.002;37.208;2023-07-02T23:33:29;6.80;;;3.90;;
75548;SDS011;64133;56.002;37.208;2023-07-02T23:38:33;7.33;;;4.30;;
75548;SDS011;64133;56.002;37.208;2023-07-02T23:43:38;7.12;;;4.15;;
75548;SDS011;64133;56.002;37.208;2023-07-02T23:48:43;9.68;;;4.22;;
75548;SDS011;64133;56.002;37.208;2023-07-02T23:53:47;7.00;;;4.15;;
75548;SDS011;64133;56.002;37.208;2023-07-02T23:58:52;8.65;;;3.87;;
